LGKR/CFU METAR and TAF weather

Enter ICAO airport designator
Station Type Date Time Source
LGKR METAR 2019/11/18 04:20 UTC NOAA

LGKR 180420Z 03003KT 9999 SCT018 SCT070 15/14 Q1014 NOSIG


Station Type Date Time Source
LGKR Decoded METAR 2019/11/18 04:20 UTC NOAA

Kerkyra Airport , Greece (LGKR) 39-37N 019-55E 4M
Nov 17, 2019 - 11:20 PM EST / 2019.11.18 0420 UTC
Wind: from the NNE (030 degrees) at 3 MPH (3 KT):0
Visibility: greater than 7 mile(s):0
Sky conditions: partly cloudy
Temperature: 59 F (15 C)
Dew Point: 57 F (14 C)
Relative Humidity: 93%
Pressure (altimeter): 29.94 in. Hg (1014 hPa)
ob: LGKR 180420Z 03003KT 9999 SCT018 SCT070 15/14 Q1014 NOSIG
cycle: 4

Station Type Date Time Source
LGKR TAF 2019/11/17 18:12 UTC NOAA

TAF LGKR 171700Z 1718/1818 13015KT 9999 SCT020 BKN080
TEMPO 1718/1803 13015G25KT PROB40
TEMPO 1718/1809 5000 RA FEW018TCU SCT018 BKN070 PROB40
TEMPO 1718/1806 4000 TSRA FEW016CB BKN018 OVC070
BECMG 1806/1808 FEW018 SCT080

Example: see airport list